sensor_id;sensor_type;location;lat;lon;timestamp;P1;durP1;ratioP1;P2;durP2;ratioP2
21890;SDS011;11110;52.386;16.940;2023-10-13T00:00:40;22.27;;;12.07;;
21890;SDS011;11110;52.386;16.940;2023-10-13T00:03:28;18.25;;;11.52;;
21890;SDS011;11110;52.386;16.940;2023-10-13T00:06:00;18.05;;;11.55;;
21890;SDS011;11110;52.386;16.940;2023-10-13T00:08:29;19.42;;;10.55;;
21890;SDS011;11110;52.386;16.940;2023-10-13T00:10:58;21.08;;;11.35;;
21890;SDS011;11110;52.386;16.940;2023-10-13T00:13:27;24.20;;;12.52;;
21890;SDS011;11110;52.386;16.940;2023-10-13T00:15:58;23.05;;;12.05;;
21890;SDS011;11110;52.386;16.940;2023-10-13T00:18:28;20.13;;;11.32;;
21890;SDS011;11110;52.386;16.940;2023-10-13T00:21:02;21.92;;;11.90;;
21890;SDS011;11110;52.386;16.940;2023-10-13T00:23:39;21.17;;;11.15;;
21890;SDS011;11110;52.386;16.940;2023-10-13T00:26:19;21.98;;;11.43;;
21890;SDS011;11110;52.386;16.940;2023-10-13T00:28:52;22.83;;;12.90;;
21890;SDS011;11110;52.386;16.940;2023-10-13T00:31:36;23.52;;;12.23;;
21890;SDS011;11110;52.386;16.940;2023-10-13T00:34:07;23.25;;;12.38;;
21890;SDS011;11110;52.386;16.940;2023-10-13T00:36:40;22.65;;;12.63;;
21890;SDS011;11110;52.386;16.940;2023-10-13T00:39:15;23.85;;;12.98;;
21890;SDS011;11110;52.386;16.940;2023-10-13T00:41:44;20.25;;;11.75;;
21890;SDS011;11110;52.386;16.940;2023-10-13T00:44:18;18.88;;;11.32;;
21890;SDS011;11110;52.386;16.940;2023-10-13T00:46:53;22.92;;;10.98;;
21890;SDS011;11110;52.386;16.940;2023-10-13T00:49:24;20.92;;;11.05;;
21890;SDS011;11110;52.386;16.940;2023-10-13T00:51:54;24.40;;;11.48;;
21890;SDS011;11110;52.386;16.940;2023-10-13T00:54:22;23.67;;;12.07;;
21890;SDS011;11110;52.386;16.940;2023-10-13T00:56:54;26.98;;;12.98;;
21890;SDS011;11110;52.386;16.940;2023-10-13T00:59:31;24.75;;;12.77;;
21890;SDS011;11110;52.386;16.940;2023-10-13T01:02:03;25.60;;;11.95;;
21890;SDS011;11110;52.386;16.940;2023-10-13T01:04:57;22.60;;;12.60;;
21890;SDS011;11110;52.386;16.940;2023-10-13T01:07:26;21.58;;;12.45;;
21890;SDS011;11110;52.386;16.940;2023-10-13T01:09:55;22.13;;;11.75;;
21890;SDS011;11110;52.386;16.940;2023-10-13T01:12:23;24.00;;;13.00;;
21890;SDS011;11110;52.386;16.940;2023-10-13T01:14:52;20.15;;;10.88;;
21890;SDS011;11110;52.386;16.940;2023-10-13T01:17:20;17.15;;;9.35;;
21890;SDS011;11110;52.386;16.940;2023-10-13T01:19:50;17.83;;;9.40;;
21890;SDS011;11110;52.386;16.940;2023-10-13T01:22:18;20.17;;;9.27;;
21890;SDS011;11110;52.386;16.940;2023-10-13T01:24:49;20.52;;;9.70;;
21890;SDS011;11110;52.386;16.940;2023-10-13T01:27:18;22.80;;;11.05;;
21890;SDS011;11110;52.386;16.940;2023-10-13T01:29:51;19.38;;;9.63;;
21890;SDS011;11110;52.386;16.940;2023-10-13T01:32:25;18.80;;;9.23;;
21890;SDS011;11110;52.386;16.940;2023-10-13T01:34:54;13.02;;;8.20;;
21890;SDS011;11110;52.386;16.940;2023-10-13T01:37:22;15.10;;;9.23;;
21890;SDS011;11110;52.386;16.940;2023-10-13T01:39:52;21.48;;;11.18;;
21890;SDS011;11110;52.386;16.940;2023-10-13T01:42:21;19.08;;;10.82;;
21890;SDS011;11110;52.386;16.940;2023-10-13T01:44:51;20.75;;;11.32;;
21890;SDS011;11110;52.386;16.940;2023-10-13T01:47:25;21.05;;;11.10;;
21890;SDS011;11110;52.386;16.940;2023-10-13T01:49:54;18.65;;;10.20;;
21890;SDS011;11110;52.386;16.940;2023-10-13T01:52:25;16.17;;;9.20;;
21890;SDS011;11110;52.386;16.940;2023-10-13T01:54:55;15.65;;;9.43;;
21890;SDS011;11110;52.386;16.940;2023-10-13T01:57:28;18.73;;;9.75;;
21890;SDS011;11110;52.386;16.940;2023-10-13T01:59:55;18.35;;;9.27;;
21890;SDS011;11110;52.386;16.940;2023-10-13T02:02:38;13.93;;;8.48;;
21890;SDS011;11110;52.386;16.940;2023-10-13T02:05:12;17.70;;;8.57;;
21890;SDS011;11110;52.386;16.940;2023-10-13T02:07:43;16.63;;;9.15;;
21890;SDS011;11110;52.386;16.940;2023-10-13T02:10:13;15.40;;;8.95;;
21890;SDS011;11110;52.386;16.940;2023-10-13T02:12:42;15.80;;;8.95;;
21890;SDS011;11110;52.386;16.940;2023-10-13T02:15:10;16.70;;;8.93;;
21890;SDS011;11110;52.386;16.940;2023-10-13T02:17:48;16.50;;;9.02;;
21890;SDS011;11110;52.386;16.940;2023-10-13T02:20:19;18.73;;;9.73;;
21890;SDS011;11110;52.386;16.940;2023-10-13T02:22:50;16.58;;;9.00;;
21890;SDS011;11110;52.386;16.940;2023-10-13T02:25:20;17.00;;;9.32;;
21890;SDS011;11110;52.386;16.940;2023-10-13T02:28:03;15.23;;;9.38;;
21890;SDS011;11110;52.386;16.940;2023-10-13T02:30:37;18.85;;;9.57;;
21890;SDS011;11110;52.386;16.940;2023-10-13T02:33:06;19.88;;;9.50;;
21890;SDS011;11110;52.386;16.940;2023-10-13T02:35:37;19.15;;;9.95;;
21890;SDS011;11110;52.386;16.940;2023-10-13T02:38:10;16.80;;;9.02;;
21890;SDS011;11110;52.386;16.940;2023-10-13T02:40:39;18.25;;;8.90;;
21890;SDS011;11110;52.386;16.940;2023-10-13T02:43:09;17.98;;;8.80;;
21890;SDS011;11110;52.386;16.940;2023-10-13T02:45:37;17.25;;;9.10;;
21890;SDS011;11110;52.386;16.940;2023-10-13T02:48:06;18.67;;;9.60;;
21890;SDS011;11110;52.386;16.940;2023-10-13T02:50:39;15.50;;;8.15;;
21890;SDS011;11110;52.386;16.940;2023-10-13T02:53:10;17.65;;;9.55;;
21890;SDS011;11110;52.386;16.940;2023-10-13T02:55:49;16.92;;;9.55;;
21890;SDS011;11110;52.386;16.940;2023-10-13T02:58:19;15.73;;;9.00;;
21890;SDS011;11110;52.386;16.940;2023-10-13T03:00:47;16.77;;;8.43;;
21890;SDS011;11110;52.386;16.940;2023-10-13T03:03:16;19.35;;;9.23;;
21890;SDS011;11110;52.386;16.940;2023-10-13T03:05:46;20.08;;;9.50;;
21890;SDS011;11110;52.386;16.940;2023-10-13T03:08:15;15.50;;;9.13;;
21890;SDS011;11110;52.386;16.940;2023-10-13T03:10:55;18.40;;;8.32;;
21890;SDS011;11110;52.386;16.940;2023-10-13T03:13:24;15.18;;;9.55;;
21890;SDS011;11110;52.386;16.940;2023-10-13T03:15:53;20.92;;;9.43;;
21890;SDS011;11110;52.386;16.940;2023-10-13T03:18:22;14.70;;;9.25;;
21890;SDS011;11110;52.386;16.940;2023-10-13T03:20:49;17.60;;;9.05;;
21890;SDS011;11110;52.386;16.940;2023-10-13T03:23:23;16.30;;;8.95;;
21890;SDS011;11110;52.386;16.940;2023-10-13T03:25:51;19.60;;;8.65;;
21890;SDS011;11110;52.386;16.940;2023-10-13T03:28:24;17.33;;;9.23;;
21890;SDS011;11110;52.386;16.940;2023-10-13T03:30:58;13.85;;;7.43;;
21890;SDS011;11110;52.386;16.940;2023-10-13T03:33:28;17.67;;;8.35;;
21890;SDS011;11110;52.386;16.940;2023-10-13T03:35:59;15.60;;;8.25;;
21890;SDS011;11110;52.386;16.940;2023-10-13T03:38:33;12.40;;;7.15;;
21890;SDS011;11110;52.386;16.940;2023-10-13T03:41:05;13.15;;;7.38;;
21890;SDS011;11110;52.386;16.940;2023-10-13T03:43:47;14.82;;;6.93;;
21890;SDS011;11110;52.386;16.940;2023-10-13T03:46:18;15.15;;;7.43;;
21890;SDS011;11110;52.386;16.940;2023-10-13T03:48:49;15.70;;;7.70;;
21890;SDS011;11110;52.386;16.940;2023-10-13T03:51:21;13.63;;;7.07;;
21890;SDS011;11110;52.386;16.940;2023-10-13T03:53:57;14.23;;;7.40;;
21890;SDS011;11110;52.386;16.940;2023-10-13T03:56:34;12.57;;;6.93;;
21890;SDS011;11110;52.386;16.940;2023-10-13T03:59:12;13.52;;;7.03;;
21890;SDS011;11110;52.386;16.940;2023-10-13T04:01:47;12.40;;;7.05;;
21890;SDS011;11110;52.386;16.940;2023-10-13T04:04:26;16.95;;;7.13;;
21890;SDS011;11110;52.386;16.940;2023-10-13T04:07:04;16.58;;;7.65;;
21890;SDS011;11110;52.386;16.940;2023-10-13T04:10:02;12.10;;;6.03;;
21890;SDS011;11110;52.386;16.940;2023-10-13T04:12:53;13.52;;;7.30;;
21890;SDS011;11110;52.386;16.940;2023-10-13T04:15:43;14.13;;;6.32;;
21890;SDS011;11110;52.386;16.940;2023-10-13T04:18:33;13.45;;;6.72;;
21890;SDS011;11110;52.386;16.940;2023-10-13T04:21:16;15.80;;;6.88;;
21890;SDS011;11110;52.386;16.940;2023-10-13T04:24:06;18.17;;;7.38;;
21890;SDS011;11110;52.386;16.940;2023-10-13T04:26:47;16.63;;;7.20;;
21890;SDS011;11110;52.386;16.940;2023-10-13T04:29:45;15.65;;;7.10;;
21890;SDS011;11110;52.386;16.940;2023-10-13T04:32:17;14.48;;;6.93;;
21890;SDS011;11110;52.386;16.940;2023-10-13T04:34:56;12.35;;;6.60;;
21890;SDS011;11110;52.386;16.940;2023-10-13T04:37:35;16.30;;;7.95;;
21890;SDS011;11110;52.386;16.940;2023-10-13T04:40:17;17.90;;;8.43;;
21890;SDS011;11110;52.386;16.940;2023-10-13T04:42:52;16.00;;;8.43;;
21890;SDS011;11110;52.386;16.940;2023-10-13T04:45:24;16.25;;;8.70;;
21890;SDS011;11110;52.386;16.940;2023-10-13T04:48:07;19.52;;;8.65;;
21890;SDS011;11110;52.386;16.940;2023-10-13T04:50:45;15.88;;;8.38;;
21890;SDS011;11110;52.386;16.940;2023-10-13T04:53:17;15.05;;;7.95;;
21890;SDS011;11110;52.386;16.940;2023-10-13T04:55:55;13.40;;;8.40;;
21890;SDS011;11110;52.386;16.940;2023-10-13T04:58:57;17.10;;;8.77;;
21890;SDS011;11110;52.386;16.940;2023-10-13T05:01:45;19.08;;;9.10;;
21890;SDS011;11110;52.386;16.940;2023-10-13T05:04:44;20.90;;;8.52;;
21890;SDS011;11110;52.386;16.940;2023-10-13T05:07:48;16.88;;;8.73;;
21890;SDS011;11110;52.386;16.940;2023-10-13T05:10:32;17.38;;;8.98;;
21890;SDS011;11110;52.386;16.940;2023-10-13T05:13:19;21.02;;;8.38;;
21890;SDS011;11110;52.386;16.940;2023-10-13T05:16:06;15.20;;;8.88;;
21890;SDS011;11110;52.386;16.940;2023-10-13T05:18:52;19.58;;;9.48;;
21890;SDS011;11110;52.386;16.940;2023-10-13T05:21:39;14.65;;;8.80;;
21890;SDS011;11110;52.386;16.940;2023-10-13T05:24:25;22.00;;;9.60;;
21890;SDS011;11110;52.386;16.940;2023-10-13T05:27:11;23.50;;;10.40;;
21890;SDS011;11110;52.386;16.940;2023-10-13T05:29:57;20.45;;;10.23;;
21890;SDS011;11110;52.386;16.940;2023-10-13T05:32:43;18.05;;;10.13;;
21890;SDS011;11110;52.386;16.940;2023-10-13T05:35:30;20.77;;;11.50;;
21890;SDS011;11110;52.386;16.940;2023-10-13T05:38:23;20.25;;;10.73;;
21890;SDS011;11110;52.386;16.940;2023-10-13T05:41:09;20.77;;;10.65;;
21890;SDS011;11110;52.386;16.940;2023-10-13T05:43:55;23.40;;;10.38;;
21890;SDS011;11110;52.386;16.940;2023-10-13T05:46:52;17.00;;;8.63;;
21890;SDS011;11110;52.386;16.940;2023-10-13T05:50:01;16.77;;;9.48;;
21890;SDS011;11110;52.386;16.940;2023-10-13T05:52:39;20.63;;;10.40;;
21890;SDS011;11110;52.386;16.940;2023-10-13T05:55:27;18.05;;;10.90;;
21890;SDS011;11110;52.386;16.940;2023-10-13T05:58:13;18.25;;;9.98;;
21890;SDS011;11110;52.386;16.940;2023-10-13T06:01:14;17.63;;;9.70;;
21890;SDS011;11110;52.386;16.940;2023-10-13T06:04:00;17.58;;;8.85;;
21890;SDS011;11110;52.386;16.940;2023-10-13T06:06:46;20.52;;;9.85;;
21890;SDS011;11110;52.386;16.940;2023-10-13T06:09:32;19.17;;;9.15;;
21890;SDS011;11110;52.386;16.940;2023-10-13T06:12:20;19.65;;;10.38;;
21890;SDS011;11110;52.386;16.940;2023-10-13T06:15:05;20.98;;;9.93;;
21890;SDS011;11110;52.386;16.940;2023-10-13T06:17:52;22.50;;;11.80;;
21890;SDS011;11110;52.386;16.940;2023-10-13T06:20:41;18.15;;;10.23;;
21890;SDS011;11110;52.386;16.940;2023-10-13T06:23:27;22.02;;;11.23;;
21890;SDS011;11110;52.386;16.940;2023-10-13T06:26:13;23.13;;;10.85;;
21890;SDS011;11110;52.386;16.940;2023-10-13T06:29:01;23.38;;;11.77;;
21890;SDS011;11110;52.386;16.940;2023-10-13T06:31:34;26.88;;;12.23;;
21890;SDS011;11110;52.386;16.940;2023-10-13T06:34:04;24.10;;;10.25;;
21890;SDS011;11110;52.386;16.940;2023-10-13T06:36:32;19.85;;;10.43;;
21890;SDS011;11110;52.386;16.940;2023-10-13T06:39:01;23.80;;;10.48;;
21890;SDS011;11110;52.386;16.940;2023-10-13T06:41:44;27.45;;;11.00;;
21890;SDS011;11110;52.386;16.940;2023-10-13T06:44:15;28.50;;;10.70;;
21890;SDS011;11110;52.386;16.940;2023-10-13T06:46:43;20.20;;;9.80;;
21890;SDS011;11110;52.386;16.940;2023-10-13T06:49:13;27.30;;;11.45;;
21890;SDS011;11110;52.386;16.940;2023-10-13T06:51:41;26.65;;;10.80;;
21890;SDS011;11110;52.386;16.940;2023-10-13T06:54:10;21.60;;;10.88;;
21890;SDS011;11110;52.386;16.940;2023-10-13T06:56:46;22.08;;;11.13;;
21890;SDS011;11110;52.386;16.940;2023-10-13T06:59:20;23.65;;;11.25;;
21890;SDS011;11110;52.386;16.940;2023-10-13T07:01:54;21.85;;;10.93;;
21890;SDS011;11110;52.386;16.940;2023-10-13T07:04:46;25.10;;;11.43;;
21890;SDS011;11110;52.386;16.940;2023-10-13T07:07:15;19.77;;;10.57;;
21890;SDS011;11110;52.386;16.940;2023-10-13T07:09:44;28.27;;;12.77;;
21890;SDS011;11110;52.386;16.940;2023-10-13T07:12:22;28.00;;;12.27;;
21890;SDS011;11110;52.386;16.940;2023-10-13T07:14:54;27.98;;;12.25;;
21890;SDS011;11110;52.386;16.940;2023-10-13T07:17:30;27.73;;;11.57;;
21890;SDS011;11110;52.386;16.940;2023-10-13T07:20:05;23.25;;;11.77;;
21890;SDS011;11110;52.386;16.940;2023-10-13T07:22:42;27.73;;;12.23;;
21890;SDS011;11110;52.386;16.940;2023-10-13T07:25:23;24.58;;;11.55;;
21890;SDS011;11110;52.386;16.940;2023-10-13T07:27:53;27.23;;;13.15;;
21890;SDS011;11110;52.386;16.940;2023-10-13T07:30:26;23.58;;;12.10;;
21890;SDS011;11110;52.386;16.940;2023-10-13T07:32:57;25.42;;;11.82;;
21890;SDS011;11110;52.386;16.940;2023-10-13T07:35:27;22.60;;;12.13;;
21890;SDS011;11110;52.386;16.940;2023-10-13T07:37:58;26.65;;;11.90;;
21890;SDS011;11110;52.386;16.940;2023-10-13T07:40:27;22.08;;;11.13;;
21890;SDS011;11110;52.386;16.940;2023-10-13T07:43:08;24.80;;;12.13;;
21890;SDS011;11110;52.386;16.940;2023-10-13T07:45:39;30.65;;;11.90;;
21890;SDS011;11110;52.386;16.940;2023-10-13T07:48:09;28.30;;;13.38;;
21890;SDS011;11110;52.386;16.940;2023-10-13T07:50:46;24.65;;;12.13;;
21890;SDS011;11110;52.386;16.940;2023-10-13T07:53:15;27.98;;;13.23;;
21890;SDS011;11110;52.386;16.940;2023-10-13T07:55:50;24.27;;;11.75;;
21890;SDS011;11110;52.386;16.940;2023-10-13T07:58:22;25.33;;;13.13;;
21890;SDS011;11110;52.386;16.940;2023-10-13T08:00:54;24.27;;;13.00;;
21890;SDS011;11110;52.386;16.940;2023-10-13T08:03:33;32.40;;;14.27;;
21890;SDS011;11110;52.386;16.940;2023-10-13T08:06:12;27.33;;;13.25;;
21890;SDS011;11110;52.386;16.940;2023-10-13T08:08:48;26.58;;;13.23;;
21890;SDS011;11110;52.386;16.940;2023-10-13T08:11:20;26.65;;;14.25;;
21890;SDS011;11110;52.386;16.940;2023-10-13T08:14:01;25.27;;;13.73;;
21890;SDS011;11110;52.386;16.940;2023-10-13T08:16:58;28.60;;;13.05;;
21890;SDS011;11110;52.386;16.940;2023-10-13T08:19:28;24.40;;;13.85;;
21890;SDS011;11110;52.386;16.940;2023-10-13T08:22:09;24.88;;;12.85;;
21890;SDS011;11110;52.386;16.940;2023-10-13T08:24:51;27.45;;;13.05;;
21890;SDS011;11110;52.386;16.940;2023-10-13T08:27:31;23.23;;;12.70;;
21890;SDS011;11110;52.386;16.940;2023-10-13T08:30:01;27.83;;;14.93;;
21890;SDS011;11110;52.386;16.940;2023-10-13T08:32:50;26.75;;;12.98;;
21890;SDS011;11110;52.386;16.940;2023-10-13T08:35:26;21.42;;;13.20;;
21890;SDS011;11110;52.386;16.940;2023-10-13T08:38:04;21.95;;;12.02;;
21890;SDS011;11110;52.386;16.940;2023-10-13T08:40:57;62.63;;;29.15;;
21890;SDS011;11110;52.386;16.940;2023-10-13T08:43:44;126.05;;;70.03;;
21890;SDS011;11110;52.386;16.940;2023-10-13T08:46:18;35.03;;;13.18;;
21890;SDS011;11110;52.386;16.940;2023-10-13T08:48:59;30.98;;;13.68;;
21890;SDS011;11110;52.386;16.940;2023-10-13T08:51:41;30.40;;;13.35;;
21890;SDS011;11110;52.386;16.940;2023-10-13T08:54:16;42.50;;;13.43;;
21890;SDS011;11110;52.386;16.940;2023-10-13T08:57:01;29.50;;;13.73;;
21890;SDS011;11110;52.386;16.940;2023-10-13T08:59:47;33.72;;;13.88;;
21890;SDS011;11110;52.386;16.940;2023-10-13T09:02:22;30.65;;;13.80;;
21890;SDS011;11110;52.386;16.940;2023-10-13T09:05:14;31.92;;;14.75;;
21890;SDS011;11110;52.386;16.940;2023-10-13T09:07:57;27.45;;;14.25;;
21890;SDS011;11110;52.386;16.940;2023-10-13T09:10:36;35.20;;;14.35;;
21890;SDS011;11110;52.386;16.940;2023-10-13T09:13:12;180.53;;;86.23;;
21890;SDS011;11110;52.386;16.940;2023-10-13T09:15:47;153.00;;;80.93;;
21890;SDS011;11110;52.386;16.940;2023-10-13T09:18:36;23.38;;;12.63;;
21890;SDS011;11110;52.386;16.940;2023-10-13T09:21:15;21.33;;;13.13;;
21890;SDS011;11110;52.386;16.940;2023-10-13T09:24:01;19.23;;;11.43;;
21890;SDS011;11110;52.386;16.940;2023-10-13T09:26:49;20.80;;;12.45;;
21890;SDS011;11110;52.386;16.940;2023-10-13T09:29:20;19.25;;;11.70;;
21890;SDS011;11110;52.386;16.940;2023-10-13T09:31:59;19.05;;;11.75;;
21890;SDS011;11110;52.386;16.940;2023-10-13T09:34:31;19.50;;;11.77;;
21890;SDS011;11110;52.386;16.940;2023-10-13T09:37:04;17.50;;;10.90;;
21890;SDS011;11110;52.386;16.940;2023-10-13T09:39:36;17.20;;;10.70;;
21890;SDS011;11110;52.386;16.940;2023-10-13T09:42:12;16.58;;;10.68;;
21890;SDS011;11110;52.386;16.940;2023-10-13T09:44:44;15.55;;;10.30;;
21890;SDS011;11110;52.386;16.940;2023-10-13T09:47:21;16.98;;;10.00;;
21890;SDS011;11110;52.386;16.940;2023-10-13T09:49:59;15.90;;;10.73;;
21890;SDS011;11110;52.386;16.940;2023-10-13T09:52:34;15.23;;;9.55;;
21890;SDS011;11110;52.386;16.940;2023-10-13T09:55:17;14.75;;;10.63;;
21890;SDS011;11110;52.386;16.940;2023-10-13T09:57:54;13.98;;;9.43;;
21890;SDS011;11110;52.386;16.940;2023-10-13T10:00:35;11.93;;;9.05;;
21890;SDS011;11110;52.386;16.940;2023-10-13T10:03:15;13.45;;;8.43;;
21890;SDS011;11110;52.386;16.940;2023-10-13T10:05:58;13.70;;;9.30;;
21890;SDS011;11110;52.386;16.940;2023-10-13T10:08:35;13.25;;;7.72;;
21890;SDS011;11110;52.386;16.940;2023-10-13T10:11:12;13.15;;;8.93;;
21890;SDS011;11110;52.386;16.940;2023-10-13T10:13:57;12.23;;;7.53;;
21890;SDS011;11110;52.386;16.940;2023-10-13T10:16:38;14.82;;;7.97;;
21890;SDS011;11110;52.386;16.940;2023-10-13T10:19:16;10.48;;;7.35;;
21890;SDS011;11110;52.386;16.940;2023-10-13T10:21:45;13.90;;;6.82;;
21890;SDS011;11110;52.386;16.940;2023-10-13T10:24:20;9.88;;;6.68;;
21890;SDS011;11110;52.386;16.940;2023-10-13T10:26:56;12.25;;;7.00;;
21890;SDS011;11110;52.386;16.940;2023-10-13T10:29:25;9.98;;;7.13;;
21890;SDS011;11110;52.386;16.940;2023-10-13T10:31:53;10.35;;;6.60;;
21890;SDS011;11110;52.386;16.940;2023-10-13T10:34:29;14.32;;;6.93;;
21890;SDS011;11110;52.386;16.940;2023-10-13T10:37:00;9.25;;;6.05;;
21890;SDS011;11110;52.386;16.940;2023-10-13T10:39:37;9.18;;;5.88;;
21890;SDS011;11110;52.386;16.940;2023-10-13T10:42:13;7.97;;;5.15;;
21890;SDS011;11110;52.386;16.940;2023-10-13T10:44:50;10.18;;;5.50;;
21890;SDS011;11110;52.386;16.940;2023-10-13T10:47:24;7.40;;;5.20;;
21890;SDS011;11110;52.386;16.940;2023-10-13T10:50:00;8.50;;;4.72;;
21890;SDS011;11110;52.386;16.940;2023-10-13T10:52:46;6.22;;;4.55;;
21890;SDS011;11110;52.386;16.940;2023-10-13T10:55:20;7.75;;;4.72;;
21890;SDS011;11110;52.386;16.940;2023-10-13T10:58:00;6.00;;;4.50;;
21890;SDS011;11110;52.386;16.940;2023-10-13T11:00:34;8.70;;;4.70;;
21890;SDS011;11110;52.386;16.940;2023-10-13T11:03:13;10.15;;;4.60;;
21890;SDS011;11110;52.386;16.940;2023-10-13T11:05:43;8.52;;;4.80;;
21890;SDS011;11110;52.386;16.940;2023-10-13T11:08:20;5.97;;;5.00;;
21890;SDS011;11110;52.386;16.940;2023-10-13T11:10:59;8.93;;;4.85;;
21890;SDS011;11110;52.386;16.940;2023-10-13T11:13:39;7.13;;;3.97;;
21890;SDS011;11110;52.386;16.940;2023-10-13T11:16:20;6.30;;;4.53;;
21890;SDS011;11110;52.386;16.940;2023-10-13T11:19:01;6.50;;;4.45;;
21890;SDS011;11110;52.386;16.940;2023-10-13T11:21:32;5.78;;;4.28;;
21890;SDS011;11110;52.386;16.940;2023-10-13T11:24:04;7.82;;;4.30;;
21890;SDS011;11110;52.386;16.940;2023-10-13T11:26:38;5.43;;;4.32;;
21890;SDS011;11110;52.386;16.940;2023-10-13T11:29:16;5.85;;;4.13;;
21890;SDS011;11110;52.386;16.940;2023-10-13T11:31:47;5.65;;;4.15;;
21890;SDS011;11110;52.386;16.940;2023-10-13T11:34:21;7.20;;;4.30;;
21890;SDS011;11110;52.386;16.940;2023-10-13T11:36:50;8.05;;;4.60;;
21890;SDS011;11110;52.386;16.940;2023-10-13T11:39:19;6.70;;;4.43;;
21890;SDS011;11110;52.386;16.940;2023-10-13T11:41:53;6.50;;;4.80;;
21890;SDS011;11110;52.386;16.940;2023-10-13T11:44:23;5.47;;;4.20;;
21890;SDS011;11110;52.386;16.940;2023-10-13T11:46:51;8.00;;;4.75;;
21890;SDS011;11110;52.386;16.940;2023-10-13T11:49:59;6.72;;;4.57;;
21890;SDS011;11110;52.386;16.940;2023-10-13T11:52:28;7.95;;;4.85;;
21890;SDS011;11110;52.386;16.940;2023-10-13T11:54:57;5.22;;;4.45;;
21890;SDS011;11110;52.386;16.940;2023-10-13T11:57:26;8.77;;;4.60;;
21890;SDS011;11110;52.386;16.940;2023-10-13T11:59:55;6.10;;;4.70;;
21890;SDS011;11110;52.386;16.940;2023-10-13T12:02:43;6.93;;;4.57;;
21890;SDS011;11110;52.386;16.940;2023-10-13T12:05:31;9.45;;;4.55;;
21890;SDS011;11110;52.386;16.940;2023-10-13T12:08:16;7.57;;;4.32;;
21890;SDS011;11110;52.386;16.940;2023-10-13T12:10:49;6.18;;;4.70;;
21890;SDS011;11110;52.386;16.940;2023-10-13T12:13:28;7.57;;;4.47;;
21890;SDS011;11110;52.386;16.940;2023-10-13T12:15:57;6.10;;;4.22;;
21890;SDS011;11110;52.386;16.940;2023-10-13T12:18:35;5.97;;;4.45;;
21890;SDS011;11110;52.386;16.940;2023-10-13T12:21:07;4.93;;;4.05;;
21890;SDS011;11110;52.386;16.940;2023-10-13T12:23:38;5.32;;;4.28;;
21890;SDS011;11110;52.386;16.940;2023-10-13T12:26:11;6.70;;;4.28;;
21890;SDS011;11110;52.386;16.940;2023-10-13T12:28:47;6.65;;;4.05;;
21890;SDS011;11110;52.386;16.940;2023-10-13T12:31:19;5.20;;;3.90;;
21890;SDS011;11110;52.386;16.940;2023-10-13T12:33:54;5.20;;;4.07;;
21890;SDS011;11110;52.386;16.940;2023-10-13T12:36:32;8.38;;;4.63;;
21890;SDS011;11110;52.386;16.940;2023-10-13T12:39:08;4.88;;;3.80;;
21890;SDS011;11110;52.386;16.940;2023-10-13T12:41:54;5.20;;;4.38;;
21890;SDS011;11110;52.386;16.940;2023-10-13T12:44:41;5.78;;;3.88;;
21890;SDS011;11110;52.386;16.940;2023-10-13T12:47:38;5.78;;;4.68;;
21890;SDS011;11110;52.386;16.940;2023-10-13T12:50:29;6.10;;;3.92;;
21890;SDS011;11110;52.386;16.940;2023-10-13T12:53:10;5.32;;;4.25;;
21890;SDS011;11110;52.386;16.940;2023-10-13T12:55:41;6.40;;;4.18;;
21890;SDS011;11110;52.386;16.940;2023-10-13T12:58:09;6.10;;;4.80;;
21890;SDS011;11110;52.386;16.940;2023-10-13T13:00:39;5.28;;;3.80;;
21890;SDS011;11110;52.386;16.940;2023-10-13T13:03:15;5.75;;;4.18;;
21890;SDS011;11110;52.386;16.940;2023-10-13T13:05:45;7.53;;;4.18;;
21890;SDS011;11110;52.386;16.940;2023-10-13T13:08:14;5.50;;;4.47;;
21890;SDS011;11110;52.386;16.940;2023-10-13T13:10:49;7.10;;;4.15;;
21890;SDS011;11110;52.386;16.940;2023-10-13T13:13:19;6.90;;;4.05;;
21890;SDS011;11110;52.386;16.940;2023-10-13T13:15:53;5.70;;;4.82;;
21890;SDS011;11110;52.386;16.940;2023-10-13T13:18:23;5.07;;;4.15;;
21890;SDS011;11110;52.386;16.940;2023-10-13T13:20:51;5.43;;;4.32;;
21890;SDS011;11110;52.386;16.940;2023-10-13T13:23:23;5.38;;;3.97;;
21890;SDS011;11110;52.386;16.940;2023-10-13T13:25:54;9.60;;;4.78;;
21890;SDS011;11110;52.386;16.940;2023-10-13T13:28:24;5.10;;;4.05;;
21890;SDS011;11110;52.386;16.940;2023-10-13T13:30:58;6.38;;;4.38;;
21890;SDS011;11110;52.386;16.940;2023-10-13T13:33:27;5.82;;;4.55;;
21890;SDS011;11110;52.386;16.940;2023-10-13T13:36:00;5.55;;;4.35;;
21890;SDS011;11110;52.386;16.940;2023-10-13T13:38:31;11.68;;;5.38;;
21890;SDS011;11110;52.386;16.940;2023-10-13T13:41:00;6.82;;;4.82;;
21890;SDS011;11110;52.386;16.940;2023-10-13T13:43:30;8.10;;;4.20;;
21890;SDS011;11110;52.386;16.940;2023-10-13T13:46:06;10.05;;;5.25;;
21890;SDS011;11110;52.386;16.940;2023-10-13T13:48:37;7.45;;;4.28;;
21890;SDS011;11110;52.386;16.940;2023-10-13T13:51:08;8.10;;;4.68;;
21890;SDS011;11110;52.386;16.940;2023-10-13T13:53:42;9.98;;;4.82;;
21890;SDS011;11110;52.386;16.940;2023-10-13T13:56:13;6.50;;;4.82;;
21890;SDS011;11110;52.386;16.940;2023-10-13T13:58:43;6.95;;;4.72;;
21890;SDS011;11110;52.386;16.940;2023-10-13T14:01:14;4.85;;;4.25;;
21890;SDS011;11110;52.386;16.940;2023-10-13T14:03:45;5.40;;;4.60;;
21890;SDS011;11110;52.386;16.940;2023-10-13T14:06:15;7.28;;;4.85;;
21890;SDS011;11110;52.386;16.940;2023-10-13T14:08:47;5.07;;;4.32;;
21890;SDS011;11110;52.386;16.940;2023-10-13T14:11:18;7.90;;;4.70;;
21890;SDS011;11110;52.386;16.940;2023-10-13T14:14:04;8.20;;;5.07;;
21890;SDS011;11110;52.386;16.940;2023-10-13T14:16:40;8.32;;;4.95;;
21890;SDS011;11110;52.386;16.940;2023-10-13T14:19:12;7.68;;;5.28;;
21890;SDS011;11110;52.386;16.940;2023-10-13T14:21:46;11.07;;;4.63;;
21890;SDS011;11110;52.386;16.940;2023-10-13T14:24:20;7.72;;;5.75;;
21890;SDS011;11110;52.386;16.940;2023-10-13T14:26:55;10.90;;;4.75;;
21890;SDS011;11110;52.386;16.940;2023-10-13T14:29:23;8.25;;;4.85;;
21890;SDS011;11110;52.386;16.940;2023-10-13T14:31:55;5.50;;;4.35;;
21890;SDS011;11110;52.386;16.940;2023-10-13T14:34:24;7.80;;;4.60;;
21890;SDS011;11110;52.386;16.940;2023-10-13T14:36:53;7.53;;;4.20;;
21890;SDS011;11110;52.386;16.940;2023-10-13T14:39:22;7.78;;;5.00;;
21890;SDS011;11110;52.386;16.940;2023-10-13T14:41:57;6.45;;;4.85;;
21890;SDS011;11110;52.386;16.940;2023-10-13T14:44:27;5.40;;;4.60;;
21890;SDS011;11110;52.386;16.940;2023-10-13T14:46:57;6.25;;;4.85;;
21890;SDS011;11110;52.386;16.940;2023-10-13T14:49:26;6.50;;;4.55;;
21890;SDS011;11110;52.386;16.940;2023-10-13T14:51:55;6.38;;;4.35;;
21890;SDS011;11110;52.386;16.940;2023-10-13T14:54:26;9.82;;;4.93;;
21890;SDS011;11110;52.386;16.940;2023-10-13T14:57:01;6.57;;;5.03;;
21890;SDS011;11110;52.386;16.940;2023-10-13T14:59:30;8.70;;;5.35;;
21890;SDS011;11110;52.386;16.940;2023-10-13T15:02:07;7.18;;;5.50;;
21890;SDS011;11110;52.386;16.940;2023-10-13T15:04:35;7.50;;;4.72;;
21890;SDS011;11110;52.386;16.940;2023-10-13T15:07:05;6.22;;;4.88;;
21890;SDS011;11110;52.386;16.940;2023-10-13T15:09:33;6.75;;;4.93;;
21890;SDS011;11110;52.386;16.940;2023-10-13T15:12:02;8.60;;;4.53;;